Time;durP1;ratioP1;P1;durP2;ratioP2;P2;SDS_P1;SDS_P2;PMS_P1;PMS_P2;Temp;Humidity;BMP_temperature;BMP_pressure;BME280_temperature;BME280_humidity;BME280_pressure;Samples;Min_cycle;Max_cycle;Signal;HPM_P1;HPM_P2
2022/09/22 00:01:39;;;;;;;7.15;2.70;;;;;;;;;;5097330;28;20039;-81
2022/09/22 00:04:07;;;;;;;6.00;2.55;;;;;;;;;;5115830;28;20028;-81
2022/09/22 00:06:38;;;;;;;5.22;2.72;;;;;;;;;;5115543;28;20016;-81
2022/09/22 00:09:05;;;;;;;4.35;2.50;;;;;;;;;;5115579;28;20035;-81
2022/09/22 00:11:36;;;;;;;10.77;3.00;;;;;;;;;;5115394;28;20023;-81
2022/09/22 00:14:02;;;;;;;6.30;2.92;;;;;;;;;;5114532;28;20103;-82
2022/09/22 00:16:30;;;;;;;5.10;2.75;;;;;;;;;;5105014;28;20044;-81
2022/09/22 00:18:56;;;;;;;5.30;2.70;;;;;;;;;;5093301;28;20454;-82
2022/09/22 00:21:26;;;;;;;3.58;2.72;;;;;;;;;;5093727;28;20059;-81
2022/09/22 00:23:52;;;;;;;4.90;2.60;;;;;;;;;;5093838;28;20032;-81
2022/09/22 00:26:21;;;;;;;3.63;2.42;;;;;;;;;;5093940;28;20478;-81
2022/09/22 00:28:48;;;;;;;7.15;2.17;;;;;;;;;;5093471;28;20074;-81
2022/09/22 00:31:16;;;;;;;3.35;2.00;;;;;;;;;;5093655;28;20028;-81
2022/09/22 00:33:42;;;;;;;6.75;2.50;;;;;;;;;;5093450;28;20024;-81
2022/09/22 00:36:09;;;;;;;4.15;2.17;;;;;;;;;;5093326;28;20082;-81
2022/09/22 00:38:36;;;;;;;4.55;2.22;;;;;;;;;;5093233;28;20043;-81
2022/09/22 00:41:03;;;;;;;5.05;2.05;;;;;;;;;;5093197;28;20016;-81
2022/09/22 00:43:31;;;;;;;5.82;2.17;;;;;;;;;;5093257;28;20020;-81
2022/09/22 00:46:00;;;;;;;7.35;2.13;;;;;;;;;;5093421;28;20477;-81
2022/09/22 00:48:29;;;;;;;2.67;1.70;;;;;;;;;;5074933;28;20039;-81
2022/09/22 00:50:56;;;;;;;3.83;1.95;;;;;;;;;;5093425;28;20028;-81
2022/09/22 00:53:23;;;;;;;5.75;2.08;;;;;;;;;;5093320;28;20117;-81
2022/09/22 00:55:52;;;;;;;4.32;2.00;;;;;;;;;;5093037;28;20419;-81
2022/09/22 00:58:20;;;;;;;3.35;1.83;;;;;;;;;;5093233;28;20020;-81
2022/09/22 01:00:46;;;;;;;4.35;1.98;;;;;;;;;;5093055;28;20017;-81
2022/09/22 01:03:14;;;;;;;3.38;1.85;;;;;;;;;;5091962;28;20069;-81
2022/09/22 01:05:42;;;;;;;5.45;2.28;;;;;;;;;;5100496;28;20450;-81
2022/09/22 01:08:10;;;;;;;7.38;2.05;;;;;;;;;;5113290;28;20020;-81
2022/09/22 01:10:36;;;;;;;6.38;2.20;;;;;;;;;;5113129;28;20023;-81
2022/09/22 01:13:14;;;;;;;4.60;2.03;;;;;;;;;;5113506;28;20102;-81
2022/09/22 01:15:46;;;;;;;4.50;1.98;;;;;;;;;;5113852;28;20051;-81
2022/09/22 01:18:12;;;;;;;7.07;1.70;;;;;;;;;;5114146;28;20055;-81
2022/09/22 01:20:56;;;;;;;5.57;1.83;;;;;;;;;;5114337;28;20028;-81
2022/09/22 01:23:25;;;;;;;7.07;1.75;;;;;;;;;;5114165;28;20354;-81
2022/09/22 01:25:54;;;;;;;5.65;1.95;;;;;;;;;;5114385;28;20028;-81
2022/09/22 01:28:26;;;;;;;6.22;1.83;;;;;;;;;;5114107;28;20428;-81
2022/09/22 01:30:52;;;;;;;4.10;1.50;;;;;;;;;;5114118;28;20039;-81
2022/09/22 01:33:29;;;;;;;5.05;1.80;;;;;;;;;;5113957;28;20027;-81
2022/09/22 01:36:03;;;;;;;4.47;1.42;;;;;;;;;;5114010;28;20085;-81
2022/09/22 01:38:32;;;;;;;7.82;1.70;;;;;;;;;;5113882;28;20403;-81
2022/09/22 01:40:58;;;;;;;8.35;1.73;;;;;;;;;;5096004;28;20019;-81
2022/09/22 01:43:34;;;;;;;10.30;1.70;;;;;;;;;;5114235;28;20027;-81
2022/09/22 01:46:03;;;;;;;3.90;1.60;;;;;;;;;;5113694;28;20020;-81
2022/09/22 01:48:31;;;;;;;3.90;1.60;;;;;;;;;;5113891;28;20023;-81
2022/09/22 01:51:00;;;;;;;3.22;1.30;;;;;;;;;;5113757;28;20484;-82
2022/09/22 01:53:29;;;;;;;5.80;1.70;;;;;;;;;;5113494;28;20488;-81
2022/09/22 01:55:58;;;;;;;3.35;1.42;;;;;;;;;;5097407;28;20020;-81
2022/09/22 01:58:44;;;;;;;3.30;1.60;;;;;;;;;;5093246;28;20013;-81
2022/09/22 02:01:13;;;;;;;2.95;1.40;;;;;;;;;;5074665;28;20028;-82
2022/09/22 02:03:44;;;;;;;5.00;1.65;;;;;;;;;;5093134;28;20028;-81
2022/09/22 02:06:15;;;;;;;3.70;1.30;;;;;;;;;;5074820;28;20039;-82
2022/09/22 02:08:50;;;;;;;2.97;1.15;;;;;;;;;;5092906;28;20020;-81
2022/09/22 02:11:16;;;;;;;2.78;1.50;;;;;;;;;;5092981;28;20024;-82
2022/09/22 02:13:43;;;;;;;4.32;1.30;;;;;;;;;;5093034;28;20020;-81
2022/09/22 02:16:10;;;;;;;3.30;1.77;;;;;;;;;;5092331;28;20048;-81
2022/09/22 02:18:46;;;;;;;6.00;2.47;;;;;;;;;;5075062;28;20446;-82
2022/09/22 02:21:13;;;;;;;6.10;1.77;;;;;;;;;;5092983;28;20383;-81
2022/09/22 02:23:39;;;;;;;5.57;1.88;;;;;;;;;;5074580;28;20499;-81
2022/09/22 02:26:06;;;;;;;7.20;1.95;;;;;;;;;;5092773;28;20031;-81
2022/09/22 02:28:33;;;;;;;4.57;1.83;;;;;;;;;;5092796;28;20103;-81
2022/09/22 02:31:00;;;;;;;4.60;1.73;;;;;;;;;;5092708;28;20024;-81
2022/09/22 02:33:27;;;;;;;4.22;2.00;;;;;;;;;;5074362;28;20028;-81
2022/09/22 02:35:56;;;;;;;4.47;1.75;;;;;;;;;;5092500;28;20020;-81
2022/09/22 02:38:28;;;;;;;6.38;1.52;;;;;;;;;;5092807;28;20023;-82
2022/09/22 02:41:01;;;;;;;5.88;1.98;;;;;;;;;;5092478;28;20049;-82
2022/09/22 02:43:42;;;;;;;5.05;1.77;;;;;;;;;;5094171;28;20020;-82
2022/09/22 02:46:14;;;;;;;5.78;1.88;;;;;;;;;;5112804;28;20374;-82
2022/09/22 02:48:43;;;;;;;2.75;1.60;;;;;;;;;;5112911;28;20016;-82
2022/09/22 02:51:09;;;;;;;4.63;1.70;;;;;;;;;;5112724;28;20473;-82
2022/09/22 02:53:36;;;;;;;6.22;2.05;;;;;;;;;;5112700;28;20016;-82
2022/09/22 02:56:03;;;;;;;6.85;1.85;;;;;;;;;;5094737;28;20027;-82
2022/09/22 02:58:29;;;;;;;5.68;1.83;;;;;;;;;;5112779;28;20016;-82
2022/09/22 03:00:55;;;;;;;7.55;2.05;;;;;;;;;;5112940;28;20023;-82
2022/09/22 03:03:21;;;;;;;4.00;2.03;;;;;;;;;;5112903;28;20028;-81
2022/09/22 03:05:47;;;;;;;5.20;2.03;;;;;;;;;;5112683;28;20026;-81
2022/09/22 03:08:13;;;;;;;5.72;2.17;;;;;;;;;;5112759;28;20051;-81
2022/09/22 03:10:40;;;;;;;6.85;2.10;;;;;;;;;;5094276;28;20028;-81
2022/09/22 03:13:06;;;;;;;5.18;2.00;;;;;;;;;;5112785;28;20028;-81
2022/09/22 03:15:32;;;;;;;5.38;2.30;;;;;;;;;;5112421;28;20031;-81
2022/09/22 03:17:58;;;;;;;7.03;2.10;;;;;;;;;;5112665;28;20040;-81
2022/09/22 03:20:24;;;;;;;9.35;2.10;;;;;;;;;;5112445;28;20023;-81
2022/09/22 03:22:50;;;;;;;7.45;2.60;;;;;;;;;;5112745;28;20115;-81
2022/09/22 03:25:16;;;;;;;5.57;2.15;;;;;;;;;;5113074;28;20466;-81
2022/09/22 03:27:42;;;;;;;9.23;2.10;;;;;;;;;;5115284;28;20035;-81
2022/09/22 03:30:09;;;;;;;4.28;2.13;;;;;;;;;;5098018;28;20351;-81
2022/09/22 03:32:35;;;;;;;10.02;2.47;;;;;;;;;;5116333;28;20084;-81
2022/09/22 03:35:01;;;;;;;4.25;2.00;;;;;;;;;;5097547;28;20031;-81
2022/09/22 03:37:27;;;;;;;3.38;2.22;;;;;;;;;;5095839;28;20089;-81
2022/09/22 03:39:53;;;;;;;5.55;2.28;;;;;;;;;;5096027;28;20443;-81
2022/09/22 03:42:19;;;;;;;3.42;1.73;;;;;;;;;;5095830;28;20028;-81
2022/09/22 03:44:45;;;;;;;5.35;1.92;;;;;;;;;;5095632;28;20024;-81
2022/09/22 03:47:12;;;;;;;6.95;2.35;;;;;;;;;;5095653;28;20066;-81
2022/09/22 03:49:38;;;;;;;5.07;2.22;;;;;;;;;;5095877;28;20351;-81
2022/09/22 03:52:04;;;;;;;7.05;2.20;;;;;;;;;;5095816;28;20435;-81
2022/09/22 03:54:30;;;;;;;7.45;2.13;;;;;;;;;;5095714;28;20028;-81
2022/09/22 03:56:57;;;;;;;5.40;2.08;;;;;;;;;;5095400;28;20020;-81
2022/09/22 03:59:23;;;;;;;5.22;2.95;;;;;;;;;;5077225;28;20016;-81
2022/09/22 04:01:50;;;;;;;4.22;2.03;;;;;;;;;;5095519;28;20030;-82
2022/09/22 04:04:16;;;;;;;5.82;2.45;;;;;;;;;;5095230;28;20035;-81
2022/09/22 04:06:42;;;;;;;4.05;2.20;;;;;;;;;;5095470;28;20078;-81
2022/09/22 04:09:08;;;;;;;4.20;2.30;;;;;;;;;;5095281;28;20032;-80
2022/09/22 04:11:35;;;;;;;4.90;2.13;;;;;;;;;;5105451;28;20041;-81
2022/09/22 04:14:02;;;;;;;7.65;3.05;;;;;;;;;;5115211;28;20024;-81
2022/09/22 04:16:29;;;;;;;6.18;2.70;;;;;;;;;;5096763;28;20055;-81
2022/09/22 04:18:55;;;;;;;4.97;2.13;;;;;;;;;;5115478;28;20015;-81
2022/09/22 04:21:21;;;;;;;4.63;2.50;;;;;;;;;;5115492;28;20024;-81
2022/09/22 04:23:47;;;;;;;7.43;2.35;;;;;;;;;;5115493;28;20031;-81
2022/09/22 04:26:13;;;;;;;6.55;2.50;;;;;;;;;;5115456;28;20038;-81
2022/09/22 04:28:39;;;;;;;6.93;2.42;;;;;;;;;;5115206;28;20020;-81
2022/09/22 04:31:05;;;;;;;5.70;2.50;;;;;;;;;;5115452;28;20031;-81
2022/09/22 04:33:31;;;;;;;5.38;2.80;;;;;;;;;;5115041;28;20799;-80
2022/09/22 04:35:58;;;;;;;7.13;2.88;;;;;;;;;;5096673;28;20022;-81
2022/09/22 04:38:24;;;;;;;6.55;2.58;;;;;;;;;;5115028;28;20107;-81
2022/09/22 04:40:51;;;;;;;10.13;2.50;;;;;;;;;;5114979;28;20031;-81
2022/09/22 04:43:18;;;;;;;5.45;2.33;;;;;;;;;;5114502;28;20020;-81
2022/09/22 04:45:45;;;;;;;4.13;2.35;;;;;;;;;;5076643;28;20020;-81
2022/09/22 04:48:12;;;;;;;6.57;3.35;;;;;;;;;;5094450;28;20043;-81
2022/09/22 04:50:37;;;;;;;5.18;2.40;;;;;;;;;;5076171;28;20020;-81
2022/09/22 04:53:04;;;;;;;5.95;2.58;;;;;;;;;;5094364;28;20099;-81
2022/09/22 04:55:30;;;;;;;3.72;2.47;;;;;;;;;;5109580;28;20031;-81
2022/09/22 04:57:56;;;;;;;6.88;2.53;;;;;;;;;;5114754;28;20016;-81
2022/09/22 05:00:23;;;;;;;6.18;2.75;;;;;;;;;;5114662;28;20035;-81
2022/09/22 05:02:49;;;;;;;6.28;3.00;;;;;;;;;;5096243;28;20127;-81
2022/09/22 05:05:16;;;;;;;7.43;2.88;;;;;;;;;;5114684;28;20074;-81
2022/09/22 05:07:44;;;;;;;5.25;2.28;;;;;;;;;;5114429;28;20469;-81
2022/09/22 05:10:10;;;;;;;6.10;3.05;;;;;;;;;;5114676;28;20126;-81
2022/09/22 05:12:40;;;;;;;4.82;3.03;;;;;;;;;;5114624;28;20024;-81
2022/09/22 05:15:06;;;;;;;8.50;2.80;;;;;;;;;;5113986;28;20415;-81
2022/09/22 05:17:32;;;;;;;5.82;2.78;;;;;;;;;;5114041;28;20108;-81
2022/09/22 05:19:58;;;;;;;8.60;2.92;;;;;;;;;;5095721;28;20470;-81
2022/09/22 05:22:24;;;;;;;5.72;2.80;;;;;;;;;;5114187;28;20016;-80
2022/09/22 05:24:50;;;;;;;7.18;3.40;;;;;;;;;;5114482;28;20028;-81
2022/09/22 05:27:17;;;;;;;5.68;3.10;;;;;;;;;;5114148;28;20028;-81
2022/09/22 05:29:43;;;;;;;7.85;2.80;;;;;;;;;;5114096;28;20020;-81
2022/09/22 05:32:09;;;;;;;5.40;2.67;;;;;;;;;;5114122;28;20032;-81
2022/09/22 05:34:35;;;;;;;6.03;2.58;;;;;;;;;;5106046;28;20023;-81
2022/09/22 05:37:01;;;;;;;6.63;2.30;;;;;;;;;;5113898;28;20469;-81
2022/09/22 05:39:27;;;;;;;5.05;2.70;;;;;;;;;;5113785;28;20073;-81
2022/09/22 05:41:53;;;;;;;8.82;2.45;;;;;;;;;;5095386;28;20119;-81
2022/09/22 05:44:20;;;;;;;4.88;2.75;;;;;;;;;;5113975;28;20098;-81
2022/09/22 05:46:46;;;;;;;7.40;3.13;;;;;;;;;;5113686;28;20029;-80
2022/09/22 05:49:12;;;;;;;8.93;3.20;;;;;;;;;;5112910;28;20363;-81
2022/09/22 05:51:38;;;;;;;5.28;2.80;;;;;;;;;;5113764;28;20462;-81
2022/09/22 05:54:04;;;;;;;4.38;2.63;;;;;;;;;;5113687;28;20063;-81
2022/09/22 05:56:31;;;;;;;8.57;3.00;;;;;;;;;;5113572;28;20051;-81
2022/09/22 05:58:57;;;;;;;8.07;3.40;;;;;;;;;;5113438;28;20015;-81
2022/09/22 06:01:23;;;;;;;13.27;3.40;;;;;;;;;;5113363;28;20081;-81
2022/09/22 06:03:49;;;;;;;6.85;3.38;;;;;;;;;;5113294;28;20107;-81
2022/09/22 06:06:15;;;;;;;6.47;3.08;;;;;;;;;;5113325;28;20058;-81
2022/09/22 06:08:41;;;;;;;5.93;3.20;;;;;;;;;;5113264;28;20023;-81
2022/09/22 06:11:07;;;;;;;6.07;3.03;;;;;;;;;;5106674;28;20364;-81
2022/09/22 06:13:34;;;;;;;7.32;3.20;;;;;;;;;;5092793;28;20024;-81
2022/09/22 06:16:01;;;;;;;11.43;3.40;;;;;;;;;;5092436;28;20099;-81
2022/09/22 06:18:28;;;;;;;14.02;4.55;;;;;;;;;;5110333;28;20051;-81
2022/09/22 06:20:57;;;;;;;10.32;3.65;;;;;;;;;;5113412;28;20354;-81
2022/09/22 06:23:24;;;;;;;8.60;3.80;;;;;;;;;;5113036;28;20017;-81
2022/09/22 06:25:56;;;;;;;11.13;4.22;;;;;;;;;;5113280;28;20027;-81
2022/09/22 06:28:22;;;;;;;7.25;4.15;;;;;;;;;;5111890;28;20055;-81
2022/09/22 06:30:50;;;;;;;8.70;3.60;;;;;;;;;;5112885;28;20106;-81
2022/09/22 06:33:17;;;;;;;7.03;3.97;;;;;;;;;;5094471;28;20393;-81
2022/09/22 06:35:45;;;;;;;11.52;3.65;;;;;;;;;;5112515;28;20088;-81
2022/09/22 06:38:14;;;;;;;6.03;3.53;;;;;;;;;;5094452;28;20020;-81
2022/09/22 06:40:41;;;;;;;5.63;3.10;;;;;;;;;;5094695;28;20141;-81
2022/09/22 06:43:10;;;;;;;8.23;3.47;;;;;;;;;;5112812;28;20426;-81
2022/09/22 06:45:37;;;;;;;7.25;3.38;;;;;;;;;;5092798;28;20028;-81
2022/09/22 06:48:03;;;;;;;9.00;3.92;;;;;;;;;;5092330;28;20099;-81
2022/09/22 06:50:30;;;;;;;7.68;3.80;;;;;;;;;;5092452;28;20441;-82
2022/09/22 06:53:00;;;;;;;8.75;3.88;;;;;;;;;;5074132;28;20024;-81
2022/09/22 06:55:27;;;;;;;10.77;4.20;;;;;;;;;;5112377;28;20028;-81
2022/09/22 06:57:53;;;;;;;7.88;4.03;;;;;;;;;;5094358;28;20096;-82
2022/09/22 07:00:19;;;;;;;7.25;3.85;;;;;;;;;;5112892;28;20530;-81
2022/09/22 07:02:45;;;;;;;11.13;4.22;;;;;;;;;;5097280;28;20381;-81
2022/09/22 07:05:13;;;;;;;7.00;3.90;;;;;;;;;;5098304;28;20107;-81
2022/09/22 07:07:39;;;;;;;13.85;4.93;;;;;;;;;;5116760;28;20051;-82
2022/09/22 07:10:05;;;;;;;8.85;5.28;;;;;;;;;;5116380;28;20032;-82
2022/09/22 07:12:31;;;;;;;11.38;6.68;;;;;;;;;;5116597;28;20027;-82
2022/09/22 07:14:57;;;;;;;10.82;6.68;;;;;;;;;;5116216;28;20023;-82
2022/09/22 07:17:25;;;;;;;14.43;7.40;;;;;;;;;;5097902;28;20040;-82
2022/09/22 07:19:52;;;;;;;17.83;8.60;;;;;;;;;;5116646;28;20028;-82
2022/09/22 07:22:18;;;;;;;15.43;8.20;;;;;;;;;;5116757;28;20098;-82
2022/09/22 07:24:45;;;;;;;17.42;9.35;;;;;;;;;;5088578;28;20073;-82
2022/09/22 07:27:19;;;;;;;14.73;7.97;;;;;;;;;;5095087;28;20035;-82
2022/09/22 07:29:47;;;;;;;17.80;8.65;;;;;;;;;;5124514;27;20041;-82
2022/09/22 07:32:14;;;;;;;16.02;9.35;;;;;;;;;;5131314;27;20090;-82
2022/09/22 07:34:40;;;;;;;17.55;9.07;;;;;;;;;;5098715;28;20063;-83
2022/09/22 07:37:06;;;;;;;15.18;8.73;;;;;;;;;;5095949;28;20024;-82
2022/09/22 07:39:32;;;;;;;20.80;10.25;;;;;;;;;;5087410;28;20020;-83
2022/09/22 07:41:58;;;;;;;18.77;9.40;;;;;;;;;;5095744;28;20107;-82
2022/09/22 07:47:09;;;;;;;29.98;9.55;;;;;;;;;;5095954;28;20042;-82
2022/09/22 07:49:35;;;;;;;15.15;9.02;;;;;;;;;;5095678;28;20055;-85
2022/09/22 07:52:02;;;;;;;15.35;9.07;;;;;;;;;;5095611;28;20579;-85
2022/09/22 07:54:28;;;;;;;23.02;8.80;;;;;;;;;;5095467;28;20028;-84
2022/09/22 07:56:56;;;;;;;14.77;8.13;;;;;;;;;;5095336;28;20020;-84
2022/09/22 07:59:23;;;;;;;17.15;8.45;;;;;;;;;;5100590;27;20431;-82
2022/09/22 08:01:50;;;;;;;13.85;7.60;;;;;;;;;;5117882;27;20046;-84
2022/09/22 08:04:17;;;;;;;15.57;8.32;;;;;;;;;;5117935;27;20029;-82
2022/09/22 08:06:47;;;;;;;16.38;7.78;;;;;;;;;;5117936;27;20031;-87
2022/09/22 08:09:13;;;;;;;14.32;7.22;;;;;;;;;;5117739;27;20081;-84
2022/09/22 08:11:39;;;;;;;18.58;7.88;;;;;;;;;;5105963;27;20607;-85
2022/09/22 08:14:07;;;;;;;18.05;7.43;;;;;;;;;;5094767;28;20020;-84
2022/09/22 08:16:34;;;;;;;12.55;7.72;;;;;;;;;;5089225;28;20089;-84
2022/09/22 08:19:01;;;;;;;12.50;6.45;;;;;;;;;;5083824;28;20059;-84
2022/09/22 08:21:34;;;;;;;17.75;6.05;;;;;;;;;;5095023;28;20416;-83
2022/09/22 08:24:08;;;;;;;13.60;6.70;;;;;;;;;;5111329;28;20031;-83
2022/09/22 08:26:37;;;;;;;17.60;5.93;;;;;;;;;;5084991;27;20035;-84
2022/09/22 08:29:04;;;;;;;16.73;5.30;;;;;;;;;;5128220;27;20052;-84
2022/09/22 08:31:31;;;;;;;12.70;5.65;;;;;;;;;;5115073;28;20535;-82
2022/09/22 08:33:57;;;;;;;16.67;5.45;;;;;;;;;;5115374;28;20119;-85
2022/09/22 08:36:26;;;;;;;10.13;5.20;;;;;;;;;;5115009;28;20012;-84
2022/09/22 08:38:53;;;;;;;12.60;5.40;;;;;;;;;;5115025;28;20024;-84
2022/09/22 08:41:28;;;;;;;8.57;5.10;;;;;;;;;;5114927;28;20055;-84
2022/09/22 08:44:00;;;;;;;14.73;5.72;;;;;;;;;;5114923;28;20024;-84
2022/09/22 08:46:26;;;;;;;14.35;5.47;;;;;;;;;;5096610;28;20033;-85
2022/09/22 08:51:52;;;;;;;10.05;5.32;;;;;;;;;;5114898;28;20089;-84
2022/09/22 08:54:24;;;;;;;11.95;5.15;;;;;;;;;;5112150;28;20024;-84
2022/09/22 08:56:56;;;;;;;13.80;5.40;;;;;;;;;;5094077;28;20025;-84
2022/09/22 08:59:23;;;;;;;17.92;5.68;;;;;;;;;;5094273;28;20413;-84
2022/09/22 09:02:13;;;;;;;10.43;4.88;;;;;;;;;;5075906;28;20036;-85
2022/09/22 09:04:58;;;;;;;7.78;4.18;;;;;;;;;;5094088;28;20069;-84
2022/09/22 09:07:33;;;;;;;11.02;4.45;;;;;;;;;;5075552;28;20035;-85
2022/09/22 09:10:19;;;;;;;9.02;3.92;;;;;;;;;;5093808;28;20047;-85
2022/09/22 09:13:05;;;;;;;12.40;4.20;;;;;;;;;;5075783;28;20024;-84
2022/09/22 09:15:46;;;;;;;9.07;3.63;;;;;;;;;;5093641;28;20024;-85
2022/09/22 09:18:17;;;;;;;7.90;3.80;;;;;;;;;;5093811;28;20434;-84
2022/09/22 09:20:48;;;;;;;11.23;4.38;;;;;;;;;;5094197;28;20024;-84
2022/09/22 09:23:37;;;;;;;7.03;3.55;;;;;;;;;;5093682;28;20024;-84
2022/09/22 09:26:05;;;;;;;8.27;3.35;;;;;;;;;;5074799;28;20474;-85
2022/09/22 09:28:38;;;;;;;8.68;3.38;;;;;;;;;;5096365;28;20059;-84
2022/09/22 09:31:10;;;;;;;9.38;3.05;;;;;;;;;;5095706;28;20035;-84
2022/09/22 09:33:36;;;;;;;7.97;3.28;;;;;;;;;;5113969;28;20020;-84
2022/09/22 09:36:02;;;;;;;8.23;2.78;;;;;;;;;;5113938;28;20043;-85
2022/09/22 09:38:31;;;;;;;9.27;3.08;;;;;;;;;;5113834;28;20057;-84
2022/09/22 09:41:17;;;;;;;7.85;2.63;;;;;;;;;;5113880;28;20446;-85
2022/09/22 09:43:44;;;;;;;8.73;2.53;;;;;;;;;;5113600;28;20469;-84
2022/09/22 09:46:19;;;;;;;7.47;2.85;;;;;;;;;;5113603;28;20076;-85
2022/09/22 09:48:48;;;;;;;6.15;2.10;;;;;;;;;;5095254;28;20038;-84
2022/09/22 09:51:14;;;;;;;12.10;2.00;;;;;;;;;;5114029;28;20046;-79
2022/09/22 09:53:45;;;;;;;4.57;1.65;;;;;;;;;;5113827;28;20036;-80
2022/09/22 09:56:17;;;;;;;9.52;2.22;;;;;;;;;;5113989;28;20012;-78
2022/09/22 10:01:43;;;;;;;5.35;1.75;;;;;;;;;;5101970;28;20350;-79
2022/09/22 10:04:21;;;;;;;5.22;2.10;;;;;;;;;;5105869;28;20069;-79
2022/09/22 10:06:48;;;;;;;6.00;2.13;;;;;;;;;;5090454;28;20028;-87
2022/09/22 10:09:34;;;;;;;6.07;2.38;;;;;;;;;;5094996;28;20111;-86
2022/09/22 10:12:01;;;;;;;4.55;2.15;;;;;;;;;;5099488;28;20032;-82
2022/09/22 10:14:29;;;;;;;6.50;2.20;;;;;;;;;;5092552;28;20444;-82
2022/09/22 10:16:55;;;;;;;6.13;2.10;;;;;;;;;;5098930;28;20036;-82
2022/09/22 10:19:25;;;;;;;5.43;2.10;;;;;;;;;;5095063;28;20019;-79
2022/09/22 10:21:51;;;;;;;7.68;2.25;;;;;;;;;;5100363;28;20020;-79
2022/09/22 10:24:31;;;;;;;9.30;2.55;;;;;;;;;;5115312;27;20027;-78
2022/09/22 10:26:57;;;;;;;7.13;2.50;;;;;;;;;;5108460;27;20031;-78
2022/09/22 10:29:23;;;;;;;12.30;2.47;;;;;;;;;;5113183;27;20099;-78
2022/09/22 10:32:01;;;;;;;7.95;2.58;;;;;;;;;;5121705;27;20102;-78
2022/09/22 10:34:32;;;;;;;7.05;1.88;;;;;;;;;;5116199;27;20022;-78
2022/09/22 10:36:59;;;;;;;4.75;1.80;;;;;;;;;;5110513;27;20099;-78
2022/09/22 10:39:31;;;;;;;6.93;2.03;;;;;;;;;;5111637;27;20055;-78
2022/09/22 10:41:57;;;;;;;;;;;;;;;;;;5121449;28;20476;-78
2022/09/22 10:44:24;;;;;;;7.10;1.85;;;;;;;;;;5124748;28;19907;-78
2022/09/22 10:46:56;;;;;;;6.47;2.15;;;;;;;;;;5126688;28;20440;-78
2022/09/22 10:49:22;;;;;;;5.55;2.35;;;;;;;;;;5119984;28;20516;-78
2022/09/22 10:52:08;;;;;;;4.28;1.70;;;;;;;;;;5118967;28;20046;-78
2022/09/22 10:54:34;;;;;;;6.97;2.10;;;;;;;;;;5121043;28;20031;-78
2022/09/22 10:57:08;;;;;;;7.40;1.85;;;;;;;;;;5123495;28;20030;-78
2022/09/22 10:59:36;;;;;;;5.78;2.17;;;;;;;;;;5122311;28;20023;-78
2022/09/22 11:02:21;;;;;;;5.78;1.90;;;;;;;;;;5105260;28;20031;-78
2022/09/22 11:05:05;;;;;;;3.53;2.28;;;;;;;;;;5105721;28;20020;-78
2022/09/22 11:13:58;;;;;;;4.53;1.92;;;;;;;;;;5104623;28;20030;-79
2022/09/22 11:16:27;;;;;;;4.03;1.73;;;;;;;;;;5092510;28;20384;-78
2022/09/22 11:19:12;;;;;;;6.40;1.90;;;;;;;;;;5093972;28;20099;-77
2022/09/22 11:22:04;;;;;;;6.10;1.92;;;;;;;;;;5112314;28;20074;-86
2022/09/22 11:24:37;;;;;;;4.95;1.67;;;;;;;;;;5084644;28;20069;-87
2022/09/22 11:27:03;;;;;;;4.43;1.80;;;;;;;;;;5087073;28;20416;-86
2022/09/22 11:29:51;;;;;;;4.63;2.13;;;;;;;;;;5092684;28;20362;-86
2022/09/22 11:32:41;;;;;;;4.53;2.08;;;;;;;;;;5085832;28;20106;-86
2022/09/22 11:35:17;;;;;;;4.13;1.90;;;;;;;;;;5074054;28;20031;-86
2022/09/22 11:38:10;;;;;;;2.60;1.45;;;;;;;;;;5088229;28;20028;-88
2022/09/22 11:40:42;;;;;;;3.30;2.00;;;;;;;;;;5094128;28;20028;-86
2022/09/22 11:43:13;;;;;;;;;;;;;;;;;;5092226;28;20020;-88
2022/09/22 11:45:40;;;;;;;7.07;2.30;;;;;;;;;;5093997;28;19907;-87
2022/09/22 11:48:13;;;;;;;4.85;2.00;;;;;;;;;;5085749;28;20031;-83
2022/09/22 11:51:01;;;;;;;8.43;2.25;;;;;;;;;;5077357;28;20027;-85
2022/09/22 11:53:49;;;;;;;4.53;2.10;;;;;;;;;;5086910;28;20042;-83
2022/09/22 11:56:22;;;;;;;4.38;2.35;;;;;;;;;;5091388;28;20036;-83
2022/09/22 11:58:55;;;;;;;6.97;3.03;;;;;;;;;;5097508;28;20042;-84
2022/09/22 12:01:23;;;;;;;5.05;2.63;;;;;;;;;;5096939;28;20035;-82
2022/09/22 12:03:55;;;;;;;5.82;2.90;;;;;;;;;;5097012;28;20027;-85
2022/09/22 12:06:25;;;;;;;;;;;;;;;;;;5097834;28;20122;-84
2022/09/22 12:08:56;;;;;;;4.80;2.15;;;;;;;;;;5097302;28;20002;-82
2022/09/22 12:11:24;;;;;;;4.50;2.33;;;;;;;;;;5097560;28;20398;-83
2022/09/22 12:13:55;;;;;;;5.38;2.53;;;;;;;;;;5096718;28;20042;-83
2022/09/22 12:16:28;;;;;;;5.53;2.70;;;;;;;;;;5096128;28;20035;-84
2022/09/22 12:19:00;;;;;;;5.97;3.40;;;;;;;;;;5097205;28;20035;-82
2022/09/22 12:21:36;;;;;;;7.70;2.63;;;;;;;;;;5097043;28;20019;-79
2022/09/22 12:24:06;;;;;;;9.77;3.00;;;;;;;;;;5096896;28;20023;-80
2022/09/22 12:26:33;;;;;;;6.13;2.72;;;;;;;;;;5096562;28;20031;-78
2022/09/22 12:29:00;;;;;;;7.78;3.33;;;;;;;;;;5110703;27;20019;-79
2022/09/22 12:31:34;;;;;;;6.95;3.15;;;;;;;;;;5096371;28;20020;-79
2022/09/22 12:34:05;;;;;;;6.80;2.80;;;;;;;;;;5112508;28;20024;-78
2022/09/22 12:36:33;;;;;;;4.65;2.30;;;;;;;;;;5114538;28;20047;-79
2022/09/22 12:39:11;;;;;;;4.75;2.28;;;;;;;;;;5096191;28;20023;-78
2022/09/22 12:41:48;;;;;;;4.00;1.80;;;;;;;;;;5096471;28;20027;-78
2022/09/22 12:44:28;;;;;;;5.72;2.45;;;;;;;;;;5114804;28;20477;-78
2022/09/22 12:47:03;;;;;;;4.22;2.47;;;;;;;;;;5114506;28;20528;-78
2022/09/22 12:49:30;;;;;;;6.85;2.70;;;;;;;;;;5096281;28;20042;-78
2022/09/22 12:51:56;;;;;;;9.38;2.67;;;;;;;;;;5114415;28;20020;-79
2022/09/22 12:54:22;;;;;;;4.72;2.53;;;;;;;;;;5095924;28;20158;-79
2022/09/22 12:57:09;;;;;;;4.82;2.65;;;;;;;;;;5113962;28;20421;-79
2022/09/22 12:59:36;;;;;;;8.68;3.35;;;;;;;;;;5112962;28;20024;-79
2022/09/22 13:02:14;;;;;;;5.95;2.88;;;;;;;;;;5114437;28;20012;-79
2022/09/22 13:04:41;;;;;;;5.60;2.83;;;;;;;;;;5114333;28;20059;-79
2022/09/22 13:07:25;;;;;;;4.03;2.65;;;;;;;;;;5114331;28;20081;-79
2022/09/22 13:10:11;;;;;;;6.65;3.22;;;;;;;;;;5113987;28;20024;-79
2022/09/22 13:12:43;;;;;;;3.88;2.60;;;;;;;;;;5088350;28;20105;-79
2022/09/22 13:15:14;;;;;;;7.30;3.17;;;;;;;;;;5075560;28;20466;-79
2022/09/22 13:17:48;;;;;;;9.73;2.85;;;;;;;;;;5081473;28;20035;-79
2022/09/22 13:20:15;;;;;;;6.15;2.72;;;;;;;;;;5095385;28;20012;-78
2022/09/22 13:22:42;;;;;;;4.65;2.20;;;;;;;;;;5113533;28;20030;-78
2022/09/22 13:25:20;;;;;;;5.43;2.50;;;;;;;;;;5109011;28;20030;-79
2022/09/22 13:27:46;;;;;;;5.20;3.10;;;;;;;;;;5101991;28;20027;-78
2022/09/22 13:30:13;;;;;;;6.43;2.00;;;;;;;;;;5099309;28;20056;-79
2022/09/22 13:32:39;;;;;;;3.10;1.50;;;;;;;;;;5088306;28;20027;-79
2022/09/22 13:35:22;;;;;;;3.65;1.90;;;;;;;;;;5096518;28;20027;-79
2022/09/22 13:37:49;;;;;;;3.38;1.80;;;;;;;;;;5108652;28;20073;-78
2022/09/22 13:40:15;;;;;;;5.90;1.88;;;;;;;;;;5098450;28;20028;-78
2022/09/22 13:42:41;;;;;;;7.40;2.22;;;;;;;;;;5098623;28;20400;-77
2022/09/22 13:45:19;;;;;;;4.95;2.50;;;;;;;;;;5100889;28;20315;-77
2022/09/22 13:47:46;;;;;;;4.15;2.28;;;;;;;;;;5104571;28;20119;-78
2022/09/22 13:50:15;;;;;;;6.68;2.78;;;;;;;;;;5103206;28;20676;-77
2022/09/22 13:52:41;;;;;;;5.07;2.55;;;;;;;;;;5108766;28;20024;-77
2022/09/22 13:55:17;;;;;;;6.90;2.53;;;;;;;;;;5092216;28;20048;-77
2022/09/22 13:57:43;;;;;;;5.35;2.33;;;;;;;;;;5090547;28;20108;-78
2022/09/22 14:00:19;;;;;;;3.55;2.40;;;;;;;;;;5102098;28;20154;-75
2022/09/22 14:02:45;;;;;;;3.50;2.38;;;;;;;;;;5098449;28;20527;-77
2022/09/22 14:05:19;;;;;;;3.80;2.03;;;;;;;;;;5105718;28;20098;-77
2022/09/22 14:07:46;;;;;;;6.45;1.90;;;;;;;;;;5110342;28;20020;-77
2022/09/22 14:10:19;;;;;;;5.10;2.05;;;;;;;;;;5111102;28;20099;-76
2022/09/22 14:12:45;;;;;;;5.03;2.78;;;;;;;;;;5112188;28;20024;-77
2022/09/22 14:15:30;;;;;;;4.82;2.30;;;;;;;;;;5107301;28;20019;-77
2022/09/22 14:17:57;;;;;;;4.43;2.40;;;;;;;;;;5107772;28;20518;-78
2022/09/22 14:20:23;;;;;;;3.53;1.88;;;;;;;;;;5104292;28;20021;-77
2022/09/22 14:22:49;;;;;;;2.40;1.65;;;;;;;;;;5092291;28;20171;-77
2022/09/22 14:25:21;;;;;;;3.40;1.88;;;;;;;;;;5092174;28;20062;-78
2022/09/22 14:27:54;;;;;;;5.67;2.03;;;;;;;;;;5092426;28;20114;-78
2022/09/22 14:30:20;;;;;;;5.93;2.20;;;;;;;;;;5110196;28;20032;-77
2022/09/22 14:32:49;;;;;;;3.85;1.95;;;;;;;;;;5112510;28;20023;-78
2022/09/22 14:35:22;;;;;;;3.30;1.90;;;;;;;;;;5099891;28;20032;-78
2022/09/22 14:37:49;;;;;;;9.05;2.35;;;;;;;;;;5091912;28;20069;-78
2022/09/22 14:40:21;;;;;;;4.00;2.30;;;;;;;;;;5092431;28;20066;-78
2022/09/22 14:43:07;;;;;;;4.43;2.22;;;;;;;;;;5092056;28;20020;-79
2022/09/22 14:45:34;;;;;;;6.40;2.20;;;;;;;;;;5089844;28;20093;-78
2022/09/22 14:48:09;;;;;;;3.00;2.00;;;;;;;;;;5109153;28;20020;-78
2022/09/22 14:50:44;;;;;;;7.53;2.80;;;;;;;;;;5111788;28;20020;-79
2022/09/22 14:53:14;;;;;;;4.30;2.60;;;;;;;;;;5111894;28;20484;-79
2022/09/22 14:55:43;;;;;;;6.57;2.83;;;;;;;;;;5099764;28;20035;-79
2022/09/22 14:58:21;;;;;;;4.82;2.53;;;;;;;;;;5110122;28;20095;-78
2022/09/22 15:03:37;;;;;;;5.10;2.28;;;;;;;;;;5106314;28;20510;-79
2022/09/22 15:06:10;;;;;;;3.60;2.38;;;;;;;;;;5112625;28;20031;-78
2022/09/22 15:08:36;;;;;;;4.28;2.25;;;;;;;;;;5100962;28;20073;-78
2022/09/22 15:11:03;;;;;;;6.07;2.28;;;;;;;;;;5105333;28;20039;-78
2022/09/22 15:13:34;;;;;;;5.97;2.40;;;;;;;;;;5100563;28;20030;-77
2022/09/22 15:16:00;;;;;;;;;;;;;;;;;;5096555;28;20032;-78